sensor_id;sensor_type;location;lat;lon;timestamp;P1;durP1;ratioP1;P2;durP2;ratioP2
15254;SDS011;7730;49.610;11.136;2023-08-06T00:02:08;6.40;;;3.15;;
15254;SDS011;7730;49.610;11.136;2023-08-06T00:04:35;6.88;;;3.30;;
15254;SDS011;7730;49.610;11.136;2023-08-06T00:07:03;7.43;;;3.47;;
15254;SDS011;7730;49.610;11.136;2023-08-06T00:09:30;7.25;;;3.50;;
15254;SDS011;7730;49.610;11.136;2023-08-06T00:11:57;6.60;;;3.45;;
15254;SDS011;7730;49.610;11.136;2023-08-06T00:14:24;6.13;;;3.40;;
15254;SDS011;7730;49.610;11.136;2023-08-06T00:16:52;7.05;;;3.10;;
15254;SDS011;7730;49.610;11.136;2023-08-06T00:19:19;8.00;;;3.42;;
15254;SDS011;7730;49.610;11.136;2023-08-06T00:21:46;7.13;;;3.58;;
15254;SDS011;7730;49.610;11.136;2023-08-06T00:24:13;8.00;;;3.60;;
15254;SDS011;7730;49.610;11.136;2023-08-06T00:26:40;8.93;;;3.72;;
15254;SDS011;7730;49.610;11.136;2023-08-06T00:29:07;7.60;;;3.50;;
15254;SDS011;7730;49.610;11.136;2023-08-06T00:31:34;7.10;;;3.40;;
15254;SDS011;7730;49.610;11.136;2023-08-06T00:34:03;3.58;;;2.40;;
15254;SDS011;7730;49.610;11.136;2023-08-06T00:36:30;3.38;;;2.40;;
15254;SDS011;7730;49.610;11.136;2023-08-06T00:38:57;3.83;;;2.55;;
15254;SDS011;7730;49.610;11.136;2023-08-06T00:41:24;4.45;;;2.50;;
15254;SDS011;7730;49.610;11.136;2023-08-06T00:43:51;6.38;;;2.33;;
15254;SDS011;7730;49.610;11.136;2023-08-06T00:46:18;5.40;;;2.40;;
15254;SDS011;7730;49.610;11.136;2023-08-06T00:48:45;3.92;;;2.35;;
15254;SDS011;7730;49.610;11.136;2023-08-06T00:51:14;3.45;;;2.22;;
15254;SDS011;7730;49.610;11.136;2023-08-06T00:53:41;4.07;;;2.10;;
15254;SDS011;7730;49.610;11.136;2023-08-06T00:56:08;3.33;;;2.10;;
15254;SDS011;7730;49.610;11.136;2023-08-06T00:58:36;4.68;;;2.22;;
15254;SDS011;7730;49.610;11.136;2023-08-06T01:01:03;4.50;;;2.33;;
15254;SDS011;7730;49.610;11.136;2023-08-06T01:03:30;2.92;;;2.17;;
15254;SDS011;7730;49.610;11.136;2023-08-06T01:05:57;4.18;;;1.90;;
15254;SDS011;7730;49.610;11.136;2023-08-06T01:08:30;3.47;;;2.22;;
15254;SDS011;7730;49.610;11.136;2023-08-06T01:11:00;3.50;;;2.00;;
15254;SDS011;7730;49.610;11.136;2023-08-06T01:13:31;2.70;;;1.80;;
15254;SDS011;7730;49.610;11.136;2023-08-06T01:15:59;4.68;;;2.00;;
15254;SDS011;7730;49.610;11.136;2023-08-06T01:18:27;3.85;;;2.10;;
15254;SDS011;7730;49.610;11.136;2023-08-06T01:20:55;4.05;;;2.03;;
15254;SDS011;7730;49.610;11.136;2023-08-06T01:23:22;4.25;;;1.90;;
15254;SDS011;7730;49.610;11.136;2023-08-06T01:25:52;3.95;;;1.98;;
15254;SDS011;7730;49.610;11.136;2023-08-06T01:28:23;2.25;;;1.70;;
15254;SDS011;7730;49.610;11.136;2023-08-06T01:30:52;2.88;;;1.70;;
15254;SDS011;7730;49.610;11.136;2023-08-06T01:33:21;2.92;;;1.83;;
15254;SDS011;7730;49.610;11.136;2023-08-06T01:35:49;3.33;;;2.00;;
15254;SDS011;7730;49.610;11.136;2023-08-06T01:38:17;4.43;;;2.08;;
15254;SDS011;7730;49.610;11.136;2023-08-06T01:40:44;3.15;;;2.00;;
15254;SDS011;7730;49.610;11.136;2023-08-06T01:43:11;2.75;;;2.05;;
15254;SDS011;7730;49.610;11.136;2023-08-06T01:45:38;2.72;;;2.00;;
15254;SDS011;7730;49.610;11.136;2023-08-06T01:48:06;3.75;;;1.90;;
15254;SDS011;7730;49.610;11.136;2023-08-06T01:50:33;3.50;;;2.10;;
15254;SDS011;7730;49.610;11.136;2023-08-06T01:53:00;2.47;;;2.00;;
15254;SDS011;7730;49.610;11.136;2023-08-06T01:55:28;3.05;;;2.03;;
15254;SDS011;7730;49.610;11.136;2023-08-06T01:57:55;3.70;;;2.00;;
15254;SDS011;7730;49.610;11.136;2023-08-06T02:00:22;2.90;;;1.98;;
15254;SDS011;7730;49.610;11.136;2023-08-06T02:02:49;5.10;;;2.20;;
15254;SDS011;7730;49.610;11.136;2023-08-06T02:05:16;2.63;;;1.90;;
15254;SDS011;7730;49.610;11.136;2023-08-06T02:07:43;4.07;;;1.98;;
15254;SDS011;7730;49.610;11.136;2023-08-06T02:10:10;1.92;;;1.73;;
15254;SDS011;7730;49.610;11.136;2023-08-06T02:12:39;3.75;;;1.80;;
15254;SDS011;7730;49.610;11.136;2023-08-06T02:15:06;3.50;;;1.80;;
15254;SDS011;7730;49.610;11.136;2023-08-06T02:17:33;3.95;;;1.80;;
15254;SDS011;7730;49.610;11.136;2023-08-06T02:20:00;2.50;;;1.77;;
15254;SDS011;7730;49.610;11.136;2023-08-06T02:22:27;2.47;;;1.92;;
15254;SDS011;7730;49.610;11.136;2023-08-06T02:24:54;3.45;;;2.00;;
15254;SDS011;7730;49.610;11.136;2023-08-06T02:27:21;3.75;;;1.95;;
15254;SDS011;7730;49.610;11.136;2023-08-06T02:29:50;5.45;;;2.10;;
15254;SDS011;7730;49.610;11.136;2023-08-06T02:32:17;2.88;;;2.10;;
15254;SDS011;7730;49.610;11.136;2023-08-06T02:34:44;3.20;;;2.00;;
15254;SDS011;7730;49.610;11.136;2023-08-06T02:37:11;4.35;;;2.25;;
15254;SDS011;7730;49.610;11.136;2023-08-06T02:39:38;4.97;;;2.20;;
15254;SDS011;7730;49.610;11.136;2023-08-06T02:42:05;5.03;;;2.28;;
15254;SDS011;7730;49.610;11.136;2023-08-06T02:44:33;3.75;;;2.15;;
15254;SDS011;7730;49.610;11.136;2023-08-06T02:47:01;5.25;;;2.35;;
15254;SDS011;7730;49.610;11.136;2023-08-06T02:49:28;2.90;;;2.20;;
15254;SDS011;7730;49.610;11.136;2023-08-06T02:51:55;3.72;;;2.10;;
15254;SDS011;7730;49.610;11.136;2023-08-06T02:54:22;2.58;;;2.00;;
15254;SDS011;7730;49.610;11.136;2023-08-06T02:56:50;4.43;;;2.08;;
15254;SDS011;7730;49.610;11.136;2023-08-06T02:59:17;3.15;;;2.15;;
15254;SDS011;7730;49.610;11.136;2023-08-06T03:01:44;5.88;;;2.30;;
15254;SDS011;7730;49.610;11.136;2023-08-06T03:04:12;4.35;;;2.30;;
15254;SDS011;7730;49.610;11.136;2023-08-06T03:06:39;4.65;;;2.30;;
15254;SDS011;7730;49.610;11.136;2023-08-06T03:09:06;3.53;;;2.22;;
15254;SDS011;7730;49.610;11.136;2023-08-06T03:11:33;5.38;;;2.38;;
15254;SDS011;7730;49.610;11.136;2023-08-06T03:14:00;2.38;;;1.80;;
15254;SDS011;7730;49.610;11.136;2023-08-06T03:16:27;4.10;;;1.98;;
15254;SDS011;7730;49.610;11.136;2023-08-06T03:18:55;6.05;;;2.00;;
15254;SDS011;7730;49.610;11.136;2023-08-06T03:21:23;3.58;;;2.10;;
15254;SDS011;7730;49.610;11.136;2023-08-06T03:23:50;4.07;;;2.03;;
15254;SDS011;7730;49.610;11.136;2023-08-06T03:26:17;2.83;;;2.10;;
15254;SDS011;7730;49.610;11.136;2023-08-06T03:28:44;5.72;;;2.10;;
15254;SDS011;7730;49.610;11.136;2023-08-06T03:31:11;2.55;;;1.90;;
15254;SDS011;7730;49.610;11.136;2023-08-06T03:33:38;3.85;;;2.08;;
15254;SDS011;7730;49.610;11.136;2023-08-06T03:36:05;3.30;;;1.92;;
15254;SDS011;7730;49.610;11.136;2023-08-06T03:38:34;5.95;;;2.00;;
15254;SDS011;7730;49.610;11.136;2023-08-06T03:41:01;3.55;;;2.05;;
15254;SDS011;7730;49.610;11.136;2023-08-06T03:43:28;2.83;;;2.00;;
15254;SDS011;7730;49.610;11.136;2023-08-06T03:45:55;4.32;;;2.13;;
15254;SDS011;7730;49.610;11.136;2023-08-06T03:48:22;2.60;;;1.90;;
15254;SDS011;7730;49.610;11.136;2023-08-06T03:50:49;5.85;;;2.03;;
15254;SDS011;7730;49.610;11.136;2023-08-06T03:53:16;3.92;;;2.30;;
15254;SDS011;7730;49.610;11.136;2023-08-06T03:55:44;2.63;;;2.10;;
15254;SDS011;7730;49.610;11.136;2023-08-06T03:58:11;3.55;;;2.08;;
15254;SDS011;7730;49.610;11.136;2023-08-06T04:00:38;4.05;;;2.30;;
15254;SDS011;7730;49.610;11.136;2023-08-06T04:03:05;3.78;;;2.05;;
15254;SDS011;7730;49.610;11.136;2023-08-06T04:05:32;4.22;;;2.28;;
15254;SDS011;7730;49.610;11.136;2023-08-06T04:07:59;4.32;;;2.28;;
15254;SDS011;7730;49.610;11.136;2023-08-06T04:10:26;4.35;;;2.20;;
15254;SDS011;7730;49.610;11.136;2023-08-06T04:12:55;4.95;;;2.38;;
15254;SDS011;7730;49.610;11.136;2023-08-06T04:15:22;3.95;;;2.10;;
15254;SDS011;7730;49.610;11.136;2023-08-06T04:17:49;5.00;;;2.20;;
15254;SDS011;7730;49.610;11.136;2023-08-06T04:20:16;2.63;;;2.08;;
15254;SDS011;7730;49.610;11.136;2023-08-06T04:22:43;4.22;;;2.30;;
15254;SDS011;7730;49.610;11.136;2023-08-06T04:25:10;3.28;;;2.00;;
15254;SDS011;7730;49.610;11.136;2023-08-06T04:27:37;4.18;;;2.10;;
15254;SDS011;7730;49.610;11.136;2023-08-06T04:30:08;4.88;;;1.90;;
15254;SDS011;7730;49.610;11.136;2023-08-06T04:32:37;2.35;;;1.98;;
15254;SDS011;7730;49.610;11.136;2023-08-06T04:35:04;3.42;;;1.98;;
15254;SDS011;7730;49.610;11.136;2023-08-06T04:37:31;3.92;;;2.00;;
15254;SDS011;7730;49.610;11.136;2023-08-06T04:39:58;3.45;;;2.08;;
15254;SDS011;7730;49.610;11.136;2023-08-06T04:42:25;5.97;;;2.00;;
15254;SDS011;7730;49.610;11.136;2023-08-06T04:44:52;2.42;;;2.03;;
15254;SDS011;7730;49.610;11.136;2023-08-06T04:47:21;3.47;;;2.00;;
15254;SDS011;7730;49.610;11.136;2023-08-06T04:49:48;3.42;;;2.20;;
15254;SDS011;7730;49.610;11.136;2023-08-06T04:52:15;2.45;;;2.00;;
15254;SDS011;7730;49.610;11.136;2023-08-06T04:54:43;4.93;;;2.22;;
15254;SDS011;7730;49.610;11.136;2023-08-06T04:57:10;5.05;;;2.20;;
15254;SDS011;7730;49.610;11.136;2023-08-06T04:59:37;4.05;;;2.08;;
15254;SDS011;7730;49.610;11.136;2023-08-06T05:02:04;4.93;;;2.55;;
15254;SDS011;7730;49.610;11.136;2023-08-06T05:04:32;2.83;;;2.08;;
15254;SDS011;7730;49.610;11.136;2023-08-06T05:06:59;4.47;;;2.17;;
15254;SDS011;7730;49.610;11.136;2023-08-06T05:09:26;3.58;;;2.08;;
15254;SDS011;7730;49.610;11.136;2023-08-06T05:11:53;4.40;;;2.25;;
15254;SDS011;7730;49.610;11.136;2023-08-06T05:14:20;5.10;;;2.38;;
15254;SDS011;7730;49.610;11.136;2023-08-06T05:16:47;6.43;;;2.70;;
15254;SDS011;7730;49.610;11.136;2023-08-06T05:19:14;7.38;;;2.50;;
15254;SDS011;7730;49.610;11.136;2023-08-06T05:21:43;4.80;;;2.30;;
15254;SDS011;7730;49.610;11.136;2023-08-06T05:24:10;4.70;;;2.33;;
15254;SDS011;7730;49.610;11.136;2023-08-06T05:26:37;4.90;;;2.20;;
15254;SDS011;7730;49.610;11.136;2023-08-06T05:29:04;3.97;;;2.30;;
15254;SDS011;7730;49.610;11.136;2023-08-06T05:31:31;6.07;;;2.28;;
15254;SDS011;7730;49.610;11.136;2023-08-06T05:33:58;3.95;;;2.65;;
15254;SDS011;7730;49.610;11.136;2023-08-06T05:36:26;5.05;;;2.58;;
15254;SDS011;7730;49.610;11.136;2023-08-06T05:38:54;5.93;;;2.97;;
15254;SDS011;7730;49.610;11.136;2023-08-06T05:41:21;4.72;;;2.72;;
15254;SDS011;7730;49.610;11.136;2023-08-06T05:43:48;6.53;;;3.08;;
15254;SDS011;7730;49.610;11.136;2023-08-06T05:46:15;4.78;;;2.50;;
15254;SDS011;7730;49.610;11.136;2023-08-06T05:48:42;5.07;;;2.70;;
15254;SDS011;7730;49.610;11.136;2023-08-06T05:51:09;5.90;;;2.65;;
15254;SDS011;7730;49.610;11.136;2023-08-06T05:53:37;5.20;;;2.88;;
15254;SDS011;7730;49.610;11.136;2023-08-06T05:56:06;4.80;;;2.50;;
15254;SDS011;7730;49.610;11.136;2023-08-06T05:58:33;5.18;;;2.67;;
15254;SDS011;7730;49.610;11.136;2023-08-06T06:01:00;6.95;;;2.80;;
15254;SDS011;7730;49.610;11.136;2023-08-06T06:03:27;4.07;;;2.60;;
15254;SDS011;7730;49.610;11.136;2023-08-06T06:05:54;6.20;;;2.50;;
15254;SDS011;7730;49.610;11.136;2023-08-06T06:08:21;5.20;;;2.60;;
15254;SDS011;7730;49.610;11.136;2023-08-06T06:10:48;7.22;;;2.60;;
15254;SDS011;7730;49.610;11.136;2023-08-06T06:13:16;4.53;;;2.40;;
15254;SDS011;7730;49.610;11.136;2023-08-06T06:15:43;5.03;;;2.70;;
15254;SDS011;7730;49.610;11.136;2023-08-06T06:18:10;6.05;;;2.45;;
15254;SDS011;7730;49.610;11.136;2023-08-06T06:20:37;6.13;;;2.72;;
15254;SDS011;7730;49.610;11.136;2023-08-06T06:23:04;6.38;;;2.60;;
15254;SDS011;7730;49.610;11.136;2023-08-06T06:25:31;4.95;;;2.58;;
15254;SDS011;7730;49.610;11.136;2023-08-06T06:27:58;5.05;;;2.50;;
15254;SDS011;7730;49.610;11.136;2023-08-06T06:30:27;4.32;;;2.40;;
15254;SDS011;7730;49.610;11.136;2023-08-06T06:32:54;5.85;;;2.63;;
15254;SDS011;7730;49.610;11.136;2023-08-06T06:35:21;5.97;;;2.50;;
15254;SDS011;7730;49.610;11.136;2023-08-06T06:37:48;4.47;;;2.50;;
15254;SDS011;7730;49.610;11.136;2023-08-06T06:40:15;5.82;;;2.90;;
15254;SDS011;7730;49.610;11.136;2023-08-06T06:42:42;7.57;;;2.72;;
15254;SDS011;7730;49.610;11.136;2023-08-06T06:45:09;5.43;;;2.63;;
15254;SDS011;7730;49.610;11.136;2023-08-06T06:47:38;6.70;;;2.63;;
15254;SDS011;7730;49.610;11.136;2023-08-06T06:50:05;7.13;;;2.75;;
15254;SDS011;7730;49.610;11.136;2023-08-06T06:52:32;6.00;;;2.85;;
15254;SDS011;7730;49.610;11.136;2023-08-06T06:54:59;5.97;;;2.72;;
15254;SDS011;7730;49.610;11.136;2023-08-06T06:57:26;4.95;;;2.60;;
15254;SDS011;7730;49.610;11.136;2023-08-06T06:59:53;6.05;;;2.72;;
15254;SDS011;7730;49.610;11.136;2023-08-06T07:02:20;5.40;;;2.88;;
15254;SDS011;7730;49.610;11.136;2023-08-06T07:04:49;6.60;;;2.70;;
15254;SDS011;7730;49.610;11.136;2023-08-06T07:07:16;8.18;;;2.78;;
15254;SDS011;7730;49.610;11.136;2023-08-06T07:09:44;6.50;;;2.80;;
15254;SDS011;7730;49.610;11.136;2023-08-06T07:12:11;4.80;;;2.70;;
15254;SDS011;7730;49.610;11.136;2023-08-06T07:14:38;5.80;;;2.65;;
15254;SDS011;7730;49.610;11.136;2023-08-06T07:17:05;6.43;;;2.75;;
15254;SDS011;7730;49.610;11.136;2023-08-06T07:19:32;4.70;;;2.53;;
15254;SDS011;7730;49.610;11.136;2023-08-06T07:22:00;4.72;;;2.70;;
15254;SDS011;7730;49.610;11.136;2023-08-06T07:24:27;4.97;;;2.60;;
15254;SDS011;7730;49.610;11.136;2023-08-06T07:26:54;6.70;;;2.72;;
15254;SDS011;7730;49.610;11.136;2023-08-06T07:29:21;4.78;;;2.67;;
15254;SDS011;7730;49.610;11.136;2023-08-06T07:31:48;9.88;;;3.00;;
15254;SDS011;7730;49.610;11.136;2023-08-06T07:34:15;5.68;;;2.70;;
15254;SDS011;7730;49.610;11.136;2023-08-06T07:36:43;6.28;;;2.80;;
15254;SDS011;7730;49.610;11.136;2023-08-06T07:39:11;6.32;;;2.60;;
15254;SDS011;7730;49.610;11.136;2023-08-06T07:41:38;7.32;;;2.83;;
15254;SDS011;7730;49.610;11.136;2023-08-06T07:44:06;6.70;;;2.67;;
15254;SDS011;7730;49.610;11.136;2023-08-06T07:46:33;4.18;;;2.40;;
15254;SDS011;7730;49.610;11.136;2023-08-06T07:49:00;4.90;;;2.58;;
15254;SDS011;7730;49.610;11.136;2023-08-06T07:51:27;4.43;;;2.47;;
15254;SDS011;7730;49.610;11.136;2023-08-06T07:53:54;5.07;;;2.58;;
15254;SDS011;7730;49.610;11.136;2023-08-06T07:56:23;5.28;;;2.75;;
15254;SDS011;7730;49.610;11.136;2023-08-06T07:58:50;5.30;;;2.53;;
15254;SDS011;7730;49.610;11.136;2023-08-06T08:01:17;4.47;;;2.40;;
15254;SDS011;7730;49.610;11.136;2023-08-06T08:03:44;3.55;;;2.45;;
15254;SDS011;7730;49.610;11.136;2023-08-06T08:06:11;4.80;;;2.58;;
15254;SDS011;7730;49.610;11.136;2023-08-06T08:08:38;7.05;;;2.70;;
15254;SDS011;7730;49.610;11.136;2023-08-06T08:11:05;7.45;;;2.60;;
15254;SDS011;7730;49.610;11.136;2023-08-06T08:13:34;5.65;;;2.70;;
15254;SDS011;7730;49.610;11.136;2023-08-06T08:16:01;6.75;;;2.50;;
15254;SDS011;7730;49.610;11.136;2023-08-06T08:18:28;6.68;;;2.60;;
15254;SDS011;7730;49.610;11.136;2023-08-06T08:20:56;4.70;;;2.40;;
15254;SDS011;7730;49.610;11.136;2023-08-06T08:23:23;5.63;;;2.40;;
15254;SDS011;7730;49.610;11.136;2023-08-06T08:25:50;6.22;;;2.60;;
15254;SDS011;7730;49.610;11.136;2023-08-06T08:28:17;4.20;;;2.40;;
15254;SDS011;7730;49.610;11.136;2023-08-06T08:30:46;7.85;;;2.55;;
15254;SDS011;7730;49.610;11.136;2023-08-06T08:33:13;6.50;;;2.38;;
15254;SDS011;7730;49.610;11.136;2023-08-06T08:35:40;6.75;;;2.42;;
15254;SDS011;7730;49.610;11.136;2023-08-06T08:38:07;5.55;;;1.90;;
15254;SDS011;7730;49.610;11.136;2023-08-06T08:40:34;2.15;;;1.52;;
15254;SDS011;7730;49.610;11.136;2023-08-06T08:43:04;1.90;;;1.35;;
15254;SDS011;7730;49.610;11.136;2023-08-06T08:45:31;3.35;;;1.40;;
15254;SDS011;7730;49.610;11.136;2023-08-06T08:48:02;3.08;;;1.10;;
15254;SDS011;7730;49.610;11.136;2023-08-06T08:50:30;1.35;;;1.00;;
15254;SDS011;7730;49.610;11.136;2023-08-06T08:52:57;3.50;;;1.30;;
15254;SDS011;7730;49.610;11.136;2023-08-06T08:55:24;1.30;;;0.90;;
15254;SDS011;7730;49.610;11.136;2023-08-06T08:57:51;1.67;;;1.00;;
15254;SDS011;7730;49.610;11.136;2023-08-06T09:00:18;1.80;;;0.82;;
15254;SDS011;7730;49.610;11.136;2023-08-06T09:02:45;0.88;;;0.50;;
15254;SDS011;7730;49.610;11.136;2023-08-06T09:05:14;0.60;;;0.50;;
15254;SDS011;7730;49.610;11.136;2023-08-06T09:07:42;1.35;;;0.90;;
15254;SDS011;7730;49.610;11.136;2023-08-06T09:10:10;2.05;;;0.90;;
15254;SDS011;7730;49.610;11.136;2023-08-06T09:12:38;0.50;;;0.50;;
15254;SDS011;7730;49.610;11.136;2023-08-06T09:15:06;0.82;;;0.73;;
15254;SDS011;7730;49.610;11.136;2023-08-06T09:17:33;0.60;;;0.60;;
15254;SDS011;7730;49.610;11.136;2023-08-06T09:20:08;1.02;;;0.57;;
15254;SDS011;7730;49.610;11.136;2023-08-06T09:22:36;1.63;;;0.70;;
15254;SDS011;7730;49.610;11.136;2023-08-06T09:25:04;1.60;;;0.85;;
15254;SDS011;7730;49.610;11.136;2023-08-06T09:27:34;0.60;;;0.60;;
15254;SDS011;7730;49.610;11.136;2023-08-06T09:30:02;1.48;;;0.65;;
15254;SDS011;7730;49.610;11.136;2023-08-06T09:32:32;3.28;;;0.82;;
15254;SDS011;7730;49.610;11.136;2023-08-06T09:35:13;1.48;;;0.52;;
15254;SDS011;7730;49.610;11.136;2023-08-06T09:37:43;1.35;;;0.73;;
15254;SDS011;7730;49.610;11.136;2023-08-06T09:40:26;1.50;;;0.68;;
15254;SDS011;7730;49.610;11.136;2023-08-06T09:42:53;0.55;;;0.50;;
15254;SDS011;7730;49.610;11.136;2023-08-06T09:45:20;1.13;;;0.60;;
15254;SDS011;7730;49.610;11.136;2023-08-06T09:47:48;0.88;;;0.60;;
15254;SDS011;7730;49.610;11.136;2023-08-06T09:52:44;1.15;;;0.57;;
15254;SDS011;7730;49.610;11.136;2023-08-06T09:55:12;2.70;;;0.88;;
15254;SDS011;7730;49.610;11.136;2023-08-06T09:57:39;1.02;;;0.93;;
15254;SDS011;7730;49.610;11.136;2023-08-06T10:00:07;0.90;;;0.60;;
15254;SDS011;7730;49.610;11.136;2023-08-06T10:02:35;0.50;;;0.50;;
15254;SDS011;7730;49.610;11.136;2023-08-06T10:05:04;1.23;;;0.52;;
15254;SDS011;7730;49.610;11.136;2023-08-06T10:07:31;2.35;;;0.50;;
15254;SDS011;7730;49.610;11.136;2023-08-06T10:10:00;0.47;;;0.47;;
15254;SDS011;7730;49.610;11.136;2023-08-06T10:12:28;0.57;;;0.50;;
15254;SDS011;7730;49.610;11.136;2023-08-06T10:14:55;0.73;;;0.73;;
15254;SDS011;7730;49.610;11.136;2023-08-06T10:17:24;0.77;;;0.70;;
15254;SDS011;7730;49.610;11.136;2023-08-06T10:19:52;1.52;;;0.63;;
15254;SDS011;7730;49.610;11.136;2023-08-06T10:22:19;0.75;;;0.52;;
15254;SDS011;7730;49.610;11.136;2023-08-06T10:24:48;1.38;;;0.60;;
15254;SDS011;7730;49.610;11.136;2023-08-06T10:27:27;1.50;;;0.57;;
15254;SDS011;7730;49.610;11.136;2023-08-06T10:29:55;1.75;;;0.60;;
15254;SDS011;7730;49.610;11.136;2023-08-06T10:32:29;0.90;;;0.65;;
15254;SDS011;7730;49.610;11.136;2023-08-06T10:35:27;2.35;;;0.60;;
15254;SDS011;7730;49.610;11.136;2023-08-06T10:37:57;1.45;;;0.63;;
15254;SDS011;7730;49.610;11.136;2023-08-06T10:40:24;0.93;;;0.60;;
15254;SDS011;7730;49.610;11.136;2023-08-06T10:42:52;0.40;;;0.40;;
15254;SDS011;7730;49.610;11.136;2023-08-06T10:45:20;1.10;;;0.47;;
15254;SDS011;7730;49.610;11.136;2023-08-06T10:47:53;0.60;;;0.60;;
15254;SDS011;7730;49.610;11.136;2023-08-06T10:50:21;1.08;;;0.68;;
15254;SDS011;7730;49.610;11.136;2023-08-06T10:52:48;0.68;;;0.50;;
15254;SDS011;7730;49.610;11.136;2023-08-06T10:55:22;0.75;;;0.65;;
15254;SDS011;7730;49.610;11.136;2023-08-06T10:57:49;0.68;;;0.50;;
15254;SDS011;7730;49.610;11.136;2023-08-06T11:00:17;0.50;;;0.50;;
15254;SDS011;7730;49.610;11.136;2023-08-06T11:02:46;0.50;;;0.50;;
15254;SDS011;7730;49.610;11.136;2023-08-06T11:05:14;1.58;;;0.45;;
15254;SDS011;7730;49.610;11.136;2023-08-06T11:07:41;0.43;;;0.43;;
15254;SDS011;7730;49.610;11.136;2023-08-06T11:10:09;1.60;;;0.40;;
15254;SDS011;7730;49.610;11.136;2023-08-06T11:12:37;0.40;;;0.40;;
15254;SDS011;7730;49.610;11.136;2023-08-06T11:15:04;2.58;;;0.60;;
15254;SDS011;7730;49.610;11.136;2023-08-06T11:17:33;1.50;;;0.60;;
15254;SDS011;7730;49.610;11.136;2023-08-06T11:20:01;3.67;;;0.68;;
15254;SDS011;7730;49.610;11.136;2023-08-06T11:22:29;0.52;;;0.50;;
15254;SDS011;7730;49.610;11.136;2023-08-06T11:24:57;0.47;;;0.47;;
15254;SDS011;7730;49.610;11.136;2023-08-06T11:27:26;2.33;;;0.50;;
15254;SDS011;7730;49.610;11.136;2023-08-06T11:29:54;0.55;;;0.55;;
15254;SDS011;7730;49.610;11.136;2023-08-06T11:32:21;2.55;;;0.50;;
15254;SDS011;7730;49.610;11.136;2023-08-06T11:34:50;0.93;;;0.43;;
15254;SDS011;7730;49.610;11.136;2023-08-06T11:37:20;0.50;;;0.50;;
15254;SDS011;7730;49.610;11.136;2023-08-06T11:39:49;0.50;;;0.50;;
15254;SDS011;7730;49.610;11.136;2023-08-06T11:42:16;0.75;;;0.60;;
15254;SDS011;7730;49.610;11.136;2023-08-06T11:44:44;0.60;;;0.60;;
15254;SDS011;7730;49.610;11.136;2023-08-06T11:47:12;0.60;;;0.57;;
15254;SDS011;7730;49.610;11.136;2023-08-06T11:49:41;1.30;;;0.90;;
15254;SDS011;7730;49.610;11.136;2023-08-06T11:52:12;0.55;;;0.55;;
15254;SDS011;7730;49.610;11.136;2023-08-06T11:54:40;0.47;;;0.47;;
15254;SDS011;7730;49.610;11.136;2023-08-06T11:57:07;1.33;;;0.43;;
15254;SDS011;7730;49.610;11.136;2023-08-06T11:59:34;1.30;;;0.80;;
15254;SDS011;7730;49.610;11.136;2023-08-06T12:02:03;1.25;;;1.08;;
15254;SDS011;7730;49.610;11.136;2023-08-06T12:04:31;1.27;;;0.60;;
15254;SDS011;7730;49.610;11.136;2023-08-06T12:07:04;0.80;;;0.60;;
15254;SDS011;7730;49.610;11.136;2023-08-06T12:09:34;1.30;;;0.70;;
15254;SDS011;7730;49.610;11.136;2023-08-06T12:12:03;2.83;;;0.70;;
15254;SDS011;7730;49.610;11.136;2023-08-06T12:14:30;1.80;;;0.70;;
15254;SDS011;7730;49.610;11.136;2023-08-06T12:16:57;0.77;;;0.77;;
15254;SDS011;7730;49.610;11.136;2023-08-06T12:19:25;0.57;;;0.52;;
15254;SDS011;7730;49.610;11.136;2023-08-06T12:21:52;0.68;;;0.65;;
15254;SDS011;7730;49.610;11.136;2023-08-06T12:24:19;0.60;;;0.60;;
15254;SDS011;7730;49.610;11.136;2023-08-06T12:26:47;0.50;;;0.50;;
15254;SDS011;7730;49.610;11.136;2023-08-06T12:29:14;1.17;;;0.40;;
15254;SDS011;7730;49.610;11.136;2023-08-06T12:31:41;1.75;;;0.40;;
15254;SDS011;7730;49.610;11.136;2023-08-06T12:34:08;0.40;;;0.40;;
15254;SDS011;7730;49.610;11.136;2023-08-06T12:36:35;0.40;;;0.40;;
15254;SDS011;7730;49.610;11.136;2023-08-06T12:39:02;0.88;;;0.45;;
15254;SDS011;7730;49.610;11.136;2023-08-06T12:41:29;0.30;;;0.30;;
15254;SDS011;7730;49.610;11.136;2023-08-06T12:43:58;0.60;;;0.60;;
15254;SDS011;7730;49.610;11.136;2023-08-06T12:46:25;0.57;;;0.50;;
15254;SDS011;7730;49.610;11.136;2023-08-06T12:48:52;1.45;;;0.93;;
15254;SDS011;7730;49.610;11.136;2023-08-06T12:51:19;0.88;;;0.40;;
15254;SDS011;7730;49.610;11.136;2023-08-06T12:53:46;0.40;;;0.40;;
15254;SDS011;7730;49.610;11.136;2023-08-06T12:56:13;0.80;;;0.65;;
15254;SDS011;7730;49.610;11.136;2023-08-06T12:58:40;2.53;;;0.65;;
15254;SDS011;7730;49.610;11.136;2023-08-06T13:01:09;1.52;;;0.40;;
15254;SDS011;7730;49.610;11.136;2023-08-06T13:03:36;0.50;;;0.50;;
15254;SDS011;7730;49.610;11.136;2023-08-06T13:06:03;0.45;;;0.45;;
15254;SDS011;7730;49.610;11.136;2023-08-06T13:08:30;0.77;;;0.50;;
15254;SDS011;7730;49.610;11.136;2023-08-06T13:10:57;0.60;;;0.60;;
15254;SDS011;7730;49.610;11.136;2023-08-06T13:13:24;0.85;;;0.40;;
15254;SDS011;7730;49.610;11.136;2023-08-06T13:15:52;0.65;;;0.40;;
15254;SDS011;7730;49.610;11.136;2023-08-06T13:18:20;0.30;;;0.30;;
15254;SDS011;7730;49.610;11.136;2023-08-06T13:20:47;0.50;;;0.40;;
15254;SDS011;7730;49.610;11.136;2023-08-06T13:23:17;1.85;;;0.45;;
15254;SDS011;7730;49.610;11.136;2023-08-06T13:25:44;0.30;;;0.30;;
15254;SDS011;7730;49.610;11.136;2023-08-06T13:28:11;1.77;;;0.50;;
15254;SDS011;7730;49.610;11.136;2023-08-06T13:30:39;0.28;;;0.22;;
15254;SDS011;7730;49.610;11.136;2023-08-06T13:33:07;0.30;;;0.30;;
15254;SDS011;7730;49.610;11.136;2023-08-06T13:35:35;0.50;;;0.40;;
15254;SDS011;7730;49.610;11.136;2023-08-06T13:38:03;0.85;;;0.30;;
15254;SDS011;7730;49.610;11.136;2023-08-06T13:40:32;0.50;;;0.40;;
15254;SDS011;7730;49.610;11.136;2023-08-06T13:42:59;0.43;;;0.30;;
15254;SDS011;7730;49.610;11.136;2023-08-06T13:45:26;1.02;;;0.30;;
15254;SDS011;7730;49.610;11.136;2023-08-06T13:47:53;1.55;;;0.40;;
15254;SDS011;7730;49.610;11.136;2023-08-06T13:50:20;0.30;;;0.30;;
15254;SDS011;7730;49.610;11.136;2023-08-06T13:52:51;1.45;;;0.35;;
15254;SDS011;7730;49.610;11.136;2023-08-06T13:55:20;0.45;;;0.30;;
15254;SDS011;7730;49.610;11.136;2023-08-06T13:57:47;2.05;;;0.50;;
15254;SDS011;7730;49.610;11.136;2023-08-06T14:00:15;0.28;;;0.28;;
15254;SDS011;7730;49.610;11.136;2023-08-06T14:02:42;0.52;;;0.20;;
15254;SDS011;7730;49.610;11.136;2023-08-06T14:05:09;0.22;;;0.22;;
15254;SDS011;7730;49.610;11.136;2023-08-06T14:07:37;0.50;;;0.40;;
15254;SDS011;7730;49.610;11.136;2023-08-06T14:10:06;0.60;;;0.30;;
15254;SDS011;7730;49.610;11.136;2023-08-06T14:12:34;1.55;;;0.40;;
15254;SDS011;7730;49.610;11.136;2023-08-06T14:15:01;0.55;;;0.30;;
15254;SDS011;7730;49.610;11.136;2023-08-06T14:17:29;0.30;;;0.30;;
15254;SDS011;7730;49.610;11.136;2023-08-06T14:19:56;0.20;;;0.20;;
15254;SDS011;7730;49.610;11.136;2023-08-06T14:22:23;0.73;;;0.20;;
15254;SDS011;7730;49.610;11.136;2023-08-06T14:24:50;0.98;;;0.30;;
15254;SDS011;7730;49.610;11.136;2023-08-06T14:27:19;0.30;;;0.30;;
15254;SDS011;7730;49.610;11.136;2023-08-06T14:29:47;1.30;;;0.68;;
15254;SDS011;7730;49.610;11.136;2023-08-06T14:32:14;0.52;;;0.30;;
15254;SDS011;7730;49.610;11.136;2023-08-06T14:34:43;0.90;;;0.30;;
15254;SDS011;7730;49.610;11.136;2023-08-06T14:37:10;0.30;;;0.30;;
15254;SDS011;7730;49.610;11.136;2023-08-06T14:39:37;0.98;;;0.65;;
15254;SDS011;7730;49.610;11.136;2023-08-06T14:42:04;1.02;;;0.40;;
15254;SDS011;7730;49.610;11.136;2023-08-06T14:44:33;1.27;;;0.50;;
15254;SDS011;7730;49.610;11.136;2023-08-06T14:47:00;0.68;;;0.50;;
15254;SDS011;7730;49.610;11.136;2023-08-06T14:49:27;0.60;;;0.50;;
15254;SDS011;7730;49.610;11.136;2023-08-06T14:51:54;2.53;;;0.70;;
15254;SDS011;7730;49.610;11.136;2023-08-06T14:54:24;0.50;;;0.50;;